sensor_id;sensor_type;location;lat;lon;timestamp;P1;durP1;ratioP1;P2;durP2;ratioP2
31004;SDS011;17676;52.254;4.490;2022-10-01T00:00:58;4.20;;;3.90;;
31004;SDS011;17676;52.254;4.490;2022-10-01T00:03:25;3.65;;;3.35;;
31004;SDS011;17676;52.254;4.490;2022-10-01T00:05:59;4.97;;;4.10;;
31004;SDS011;17676;52.254;4.490;2022-10-01T00:08:42;3.95;;;3.63;;
31004;SDS011;17676;52.254;4.490;2022-10-01T00:11:19;3.95;;;3.35;;
31004;SDS011;17676;52.254;4.490;2022-10-01T00:13:47;3.75;;;3.55;;
31004;SDS011;17676;52.254;4.490;2022-10-01T00:16:14;3.47;;;3.17;;
31004;SDS011;17676;52.254;4.490;2022-10-01T00:18:42;3.60;;;2.97;;
31004;SDS011;17676;52.254;4.490;2022-10-01T00:21:11;3.22;;;2.95;;
31004;SDS011;17676;52.254;4.490;2022-10-01T00:23:38;4.10;;;2.47;;
31004;SDS011;17676;52.254;4.490;2022-10-01T00:29:00;4.53;;;2.60;;
31004;SDS011;17676;52.254;4.490;2022-10-01T00:31:27;4.60;;;2.65;;
31004;SDS011;17676;52.254;4.490;2022-10-01T00:34:00;2.40;;;2.30;;
31004;SDS011;17676;52.254;4.490;2022-10-01T00:37:14;1.70;;;1.60;;
31004;SDS011;17676;52.254;4.490;2022-10-01T00:39:42;2.63;;;2.20;;
31004;SDS011;17676;52.254;4.490;2022-10-01T00:42:16;2.78;;;2.25;;
31004;SDS011;17676;52.254;4.490;2022-10-01T00:44:45;2.75;;;2.10;;
31004;SDS011;17676;52.254;4.490;2022-10-01T00:52:59;2.55;;;2.45;;
31004;SDS011;17676;52.254;4.490;2022-10-01T00:55:28;3.63;;;2.47;;
31004;SDS011;17676;52.254;4.490;2022-10-01T00:57:58;3.47;;;2.40;;
31004;SDS011;17676;52.254;4.490;2022-10-01T01:00:27;3.05;;;2.72;;
31004;SDS011;17676;52.254;4.490;2022-10-01T01:02:54;3.38;;;3.05;;
31004;SDS011;17676;52.254;4.490;2022-10-01T01:05:19;2.58;;;2.38;;
31004;SDS011;17676;52.254;4.490;2022-10-01T01:07:46;3.95;;;2.78;;
31004;SDS011;17676;52.254;4.490;2022-10-01T01:10:13;3.42;;;2.92;;
31004;SDS011;17676;52.254;4.490;2022-10-01T01:15:42;2.40;;;2.22;;
31004;SDS011;17676;52.254;4.490;2022-10-01T01:18:27;2.83;;;2.63;;
31004;SDS011;17676;52.254;4.490;2022-10-01T01:21:20;2.63;;;2.53;;
31004;SDS011;17676;52.254;4.490;2022-10-01T01:26:51;3.63;;;2.85;;
31004;SDS011;17676;52.254;4.490;2022-10-01T01:29:51;2.63;;;2.53;;
31004;SDS011;17676;52.254;4.490;2022-10-01T01:32:28;2.75;;;2.50;;
31004;SDS011;17676;52.254;4.490;2022-10-01T01:35:10;3.60;;;3.30;;
31004;SDS011;17676;52.254;4.490;2022-10-01T01:37:44;3.38;;;3.28;;
31004;SDS011;17676;52.254;4.490;2022-10-01T01:40:20;4.53;;;3.33;;
31004;SDS011;17676;52.254;4.490;2022-10-01T01:42:47;3.50;;;3.30;;
31004;SDS011;17676;52.254;4.490;2022-10-01T01:45:16;3.58;;;3.38;;
31004;SDS011;17676;52.254;4.490;2022-10-01T01:47:46;3.28;;;3.08;;
31004;SDS011;17676;52.254;4.490;2022-10-01T01:50:14;3.47;;;3.22;;
31004;SDS011;17676;52.254;4.490;2022-10-01T01:52:41;3.85;;;3.55;;
31004;SDS011;17676;52.254;4.490;2022-10-01T01:55:07;5.47;;;3.58;;
31004;SDS011;17676;52.254;4.490;2022-10-01T01:57:38;3.90;;;3.60;;
31004;SDS011;17676;52.254;4.490;2022-10-01T02:00:05;4.43;;;4.03;;
31004;SDS011;17676;52.254;4.490;2022-10-01T02:02:31;4.20;;;3.80;;
31004;SDS011;17676;52.254;4.490;2022-10-01T02:05:00;3.20;;;2.53;;
31004;SDS011;17676;52.254;4.490;2022-10-01T02:07:47;4.57;;;2.40;;
31004;SDS011;17676;52.254;4.490;2022-10-01T02:15:55;2.30;;;2.10;;
31004;SDS011;17676;52.254;4.490;2022-10-01T02:21:09;2.75;;;1.70;;
31004;SDS011;17676;52.254;4.490;2022-10-01T02:23:51;3.45;;;2.22;;
31004;SDS011;17676;52.254;4.490;2022-10-01T02:26:22;2.17;;;2.00;;
31004;SDS011;17676;52.254;4.490;2022-10-01T02:28:51;2.00;;;1.90;;
31004;SDS011;17676;52.254;4.490;2022-10-01T02:31:20;2.65;;;2.08;;
31004;SDS011;17676;52.254;4.490;2022-10-01T02:33:48;2.20;;;2.10;;
31004;SDS011;17676;52.254;4.490;2022-10-01T02:36:16;3.22;;;2.10;;
31004;SDS011;17676;52.254;4.490;2022-10-01T02:38:46;4.78;;;2.38;;
31004;SDS011;17676;52.254;4.490;2022-10-01T02:41:15;2.42;;;2.00;;
31004;SDS011;17676;52.254;4.490;2022-10-01T02:49:08;3.10;;;2.30;;
31004;SDS011;17676;52.254;4.490;2022-10-01T02:54:33;3.50;;;2.47;;
31004;SDS011;17676;52.254;4.490;2022-10-01T02:57:02;4.43;;;2.40;;
31004;SDS011;17676;52.254;4.490;2022-10-01T02:59:46;3.45;;;2.60;;
31004;SDS011;17676;52.254;4.490;2022-10-01T03:02:13;3.30;;;2.30;;
31004;SDS011;17676;52.254;4.490;2022-10-01T03:04:38;4.40;;;2.75;;
31004;SDS011;17676;52.254;4.490;2022-10-01T03:07:04;5.43;;;2.72;;
31004;SDS011;17676;52.254;4.490;2022-10-01T03:09:30;4.20;;;2.55;;
31004;SDS011;17676;52.254;4.490;2022-10-01T03:11:56;2.47;;;2.17;;
31004;SDS011;17676;52.254;4.490;2022-10-01T03:14:23;8.60;;;3.05;;
31004;SDS011;17676;52.254;4.490;2022-10-01T03:16:49;2.95;;;2.50;;
31004;SDS011;17676;52.254;4.490;2022-10-01T03:19:21;2.85;;;2.63;;
31004;SDS011;17676;52.254;4.490;2022-10-01T03:21:47;5.10;;;3.22;;
31004;SDS011;17676;52.254;4.490;2022-10-01T03:24:13;2.88;;;2.70;;
31004;SDS011;17676;52.254;4.490;2022-10-01T03:26:38;3.63;;;3.08;;
31004;SDS011;17676;52.254;4.490;2022-10-01T03:29:04;9.35;;;3.20;;
31004;SDS011;17676;52.254;4.490;2022-10-01T03:31:31;5.35;;;2.60;;
31004;SDS011;17676;52.254;4.490;2022-10-01T03:33:58;3.42;;;2.00;;
31004;SDS011;17676;52.254;4.490;2022-10-01T03:36:27;6.00;;;2.28;;
31004;SDS011;17676;52.254;4.490;2022-10-01T03:38:54;11.38;;;2.47;;
31004;SDS011;17676;52.254;4.490;2022-10-01T03:41:20;12.63;;;2.40;;
31004;SDS011;17676;52.254;4.490;2022-10-01T03:43:46;10.10;;;1.75;;
31004;SDS011;17676;52.254;4.490;2022-10-01T03:46:12;17.48;;;2.33;;
31004;SDS011;17676;52.254;4.490;2022-10-01T03:48:38;14.38;;;1.77;;
31004;SDS011;17676;52.254;4.490;2022-10-01T03:51:04;12.23;;;1.80;;
31004;SDS011;17676;52.254;4.490;2022-10-01T03:53:29;17.83;;;2.33;;
31004;SDS011;17676;52.254;4.490;2022-10-01T03:55:56;20.92;;;2.60;;
31004;SDS011;17676;52.254;4.490;2022-10-01T03:58:22;14.77;;;1.20;;
31004;SDS011;17676;52.254;4.490;2022-10-01T04:00:48;13.13;;;1.35;;
31004;SDS011;17676;52.254;4.490;2022-10-01T04:03:14;8.45;;;1.00;;
31004;SDS011;17676;52.254;4.490;2022-10-01T04:05:42;18.48;;;1.58;;
31004;SDS011;17676;52.254;4.490;2022-10-01T04:08:09;20.98;;;1.80;;
31004;SDS011;17676;52.254;4.490;2022-10-01T04:10:37;21.90;;;1.70;;
31004;SDS011;17676;52.254;4.490;2022-10-01T04:13:03;10.57;;;1.20;;
31004;SDS011;17676;52.254;4.490;2022-10-01T04:15:30;23.67;;;1.23;;
31004;SDS011;17676;52.254;4.490;2022-10-01T04:18:00;15.93;;;1.90;;
31004;SDS011;17676;52.254;4.490;2022-10-01T04:20:31;12.20;;;1.27;;
31004;SDS011;17676;52.254;4.490;2022-10-01T04:22:58;14.48;;;1.15;;
31004;SDS011;17676;52.254;4.490;2022-10-01T04:25:24;17.10;;;1.50;;
31004;SDS011;17676;52.254;4.490;2022-10-01T04:27:57;17.15;;;1.30;;
31004;SDS011;17676;52.254;4.490;2022-10-01T04:30:29;14.95;;;1.77;;
31004;SDS011;17676;52.254;4.490;2022-10-01T04:32:57;11.43;;;1.33;;
31004;SDS011;17676;52.254;4.490;2022-10-01T04:35:23;11.68;;;0.63;;
31004;SDS011;17676;52.254;4.490;2022-10-01T04:37:59;11.77;;;1.05;;
31004;SDS011;17676;52.254;4.490;2022-10-01T04:40:36;12.13;;;0.85;;
31004;SDS011;17676;52.254;4.490;2022-10-01T04:43:03;13.55;;;0.90;;
31004;SDS011;17676;52.254;4.490;2022-10-01T04:45:31;10.45;;;1.50;;
31004;SDS011;17676;52.254;4.490;2022-10-01T04:47:57;17.13;;;0.60;;
31004;SDS011;17676;52.254;4.490;2022-10-01T04:50:24;12.52;;;0.65;;
31004;SDS011;17676;52.254;4.490;2022-10-01T04:52:50;19.60;;;1.38;;
31004;SDS011;17676;52.254;4.490;2022-10-01T04:55:17;14.13;;;0.80;;
31004;SDS011;17676;52.254;4.490;2022-10-01T04:57:45;16.20;;;0.82;;
31004;SDS011;17676;52.254;4.490;2022-10-01T05:00:20;14.65;;;1.13;;
31004;SDS011;17676;52.254;4.490;2022-10-01T05:02:48;14.52;;;1.20;;
31004;SDS011;17676;52.254;4.490;2022-10-01T05:05:16;12.07;;;0.60;;
31004;SDS011;17676;52.254;4.490;2022-10-01T05:07:43;12.23;;;0.65;;
31004;SDS011;17676;52.254;4.490;2022-10-01T05:10:10;13.90;;;0.80;;
31004;SDS011;17676;52.254;4.490;2022-10-01T05:12:37;13.40;;;0.93;;
31004;SDS011;17676;52.254;4.490;2022-10-01T05:15:03;14.02;;;1.33;;
31004;SDS011;17676;52.254;4.490;2022-10-01T05:17:29;8.63;;;0.50;;
31004;SDS011;17676;52.254;4.490;2022-10-01T05:19:59;15.60;;;1.15;;
31004;SDS011;17676;52.254;4.490;2022-10-01T05:22:25;10.50;;;0.85;;
31004;SDS011;17676;52.254;4.490;2022-10-01T05:24:52;11.60;;;0.68;;
31004;SDS011;17676;52.254;4.490;2022-10-01T05:27:18;14.50;;;1.45;;
31004;SDS011;17676;52.254;4.490;2022-10-01T05:29:44;10.60;;;0.82;;
31004;SDS011;17676;52.254;4.490;2022-10-01T05:32:11;15.93;;;0.80;;
31004;SDS011;17676;52.254;4.490;2022-10-01T05:34:37;11.23;;;0.82;;
31004;SDS011;17676;52.254;4.490;2022-10-01T05:37:05;10.57;;;0.95;;
31004;SDS011;17676;52.254;4.490;2022-10-01T05:39:31;13.73;;;0.85;;
31004;SDS011;17676;52.254;4.490;2022-10-01T05:41:57;8.85;;;1.20;;
31004;SDS011;17676;52.254;4.490;2022-10-01T05:44:23;16.70;;;1.10;;
31004;SDS011;17676;52.254;4.490;2022-10-01T05:46:49;11.95;;;0.88;;
31004;SDS011;17676;52.254;4.490;2022-10-01T05:49:15;13.60;;;1.17;;
31004;SDS011;17676;52.254;4.490;2022-10-01T05:51:42;18.02;;;1.05;;
31004;SDS011;17676;52.254;4.490;2022-10-01T05:54:08;14.90;;;0.63;;
31004;SDS011;17676;52.254;4.490;2022-10-01T05:56:34;16.73;;;1.77;;
31004;SDS011;17676;52.254;4.490;2022-10-01T05:59:01;13.48;;;0.70;;
31004;SDS011;17676;52.254;4.490;2022-10-01T06:01:28;13.57;;;1.50;;
31004;SDS011;17676;52.254;4.490;2022-10-01T06:03:56;10.32;;;1.13;;
31004;SDS011;17676;52.254;4.490;2022-10-01T06:06:22;15.98;;;1.55;;
31004;SDS011;17676;52.254;4.490;2022-10-01T06:08:50;15.00;;;1.00;;
31004;SDS011;17676;52.254;4.490;2022-10-01T06:11:16;12.13;;;1.17;;
31004;SDS011;17676;52.254;4.490;2022-10-01T06:13:42;10.68;;;1.17;;
31004;SDS011;17676;52.254;4.490;2022-10-01T06:16:11;9.48;;;0.52;;
31004;SDS011;17676;52.254;4.490;2022-10-01T06:18:37;17.55;;;1.40;;
31004;SDS011;17676;52.254;4.490;2022-10-01T06:21:03;14.48;;;1.20;;
31004;SDS011;17676;52.254;4.490;2022-10-01T06:23:30;11.63;;;1.38;;
31004;SDS011;17676;52.254;4.490;2022-10-01T06:25:57;8.88;;;1.00;;
31004;SDS011;17676;52.254;4.490;2022-10-01T06:28:24;13.95;;;0.70;;
31004;SDS011;17676;52.254;4.490;2022-10-01T06:30:49;14.05;;;0.80;;
31004;SDS011;17676;52.254;4.490;2022-10-01T06:33:18;13.27;;;0.70;;
31004;SDS011;17676;52.254;4.490;2022-10-01T06:35:48;12.70;;;0.88;;
31004;SDS011;17676;52.254;4.490;2022-10-01T06:38:16;14.63;;;0.90;;
31004;SDS011;17676;52.254;4.490;2022-10-01T06:40:53;11.80;;;0.95;;
31004;SDS011;17676;52.254;4.490;2022-10-01T06:43:21;12.90;;;1.08;;
31004;SDS011;17676;52.254;4.490;2022-10-01T06:45:48;13.30;;;1.10;;
31004;SDS011;17676;52.254;4.490;2022-10-01T06:48:14;18.17;;;1.58;;
31004;SDS011;17676;52.254;4.490;2022-10-01T06:50:42;12.02;;;1.20;;
31004;SDS011;17676;52.254;4.490;2022-10-01T06:53:09;17.38;;;1.45;;
31004;SDS011;17676;52.254;4.490;2022-10-01T06:55:35;10.88;;;0.70;;
31004;SDS011;17676;52.254;4.490;2022-10-01T06:58:02;19.00;;;1.83;;
31004;SDS011;17676;52.254;4.490;2022-10-01T07:00:31;14.32;;;1.10;;
31004;SDS011;17676;52.254;4.490;2022-10-01T07:02:58;15.32;;;1.42;;
31004;SDS011;17676;52.254;4.490;2022-10-01T07:05:25;16.00;;;1.35;;
31004;SDS011;17676;52.254;4.490;2022-10-01T07:07:51;13.85;;;1.00;;
31004;SDS011;17676;52.254;4.490;2022-10-01T07:10:17;14.77;;;1.35;;
31004;SDS011;17676;52.254;4.490;2022-10-01T07:12:47;15.90;;;1.30;;
31004;SDS011;17676;52.254;4.490;2022-10-01T07:15:29;10.75;;;1.00;;
31004;SDS011;17676;52.254;4.490;2022-10-01T07:17:59;13.80;;;2.03;;
31004;SDS011;17676;52.254;4.490;2022-10-01T07:20:24;27.98;;;1.02;;
31004;SDS011;17676;52.254;4.490;2022-10-01T07:22:56;16.58;;;1.50;;
31004;SDS011;17676;52.254;4.490;2022-10-01T07:25:23;15.18;;;0.90;;
31004;SDS011;17676;52.254;4.490;2022-10-01T07:27:58;19.50;;;1.30;;
31004;SDS011;17676;52.254;4.490;2022-10-01T07:30:26;11.60;;;0.93;;
31004;SDS011;17676;52.254;4.490;2022-10-01T07:32:54;18.60;;;1.40;;
31004;SDS011;17676;52.254;4.490;2022-10-01T07:35:19;21.17;;;0.80;;
31004;SDS011;17676;52.254;4.490;2022-10-01T07:37:49;15.07;;;1.20;;
31004;SDS011;17676;52.254;4.490;2022-10-01T07:40:16;8.38;;;0.93;;
31004;SDS011;17676;52.254;4.490;2022-10-01T07:42:42;13.40;;;0.90;;
31004;SDS011;17676;52.254;4.490;2022-10-01T07:45:18;11.13;;;0.65;;
31004;SDS011;17676;52.254;4.490;2022-10-01T07:47:50;14.85;;;0.85;;
31004;SDS011;17676;52.254;4.490;2022-10-01T07:50:20;10.25;;;0.98;;
31004;SDS011;17676;52.254;4.490;2022-10-01T07:52:49;10.80;;;0.85;;
31004;SDS011;17676;52.254;4.490;2022-10-01T07:55:18;18.30;;;1.10;;
31004;SDS011;17676;52.254;4.490;2022-10-01T07:57:54;11.23;;;1.00;;
31004;SDS011;17676;52.254;4.490;2022-10-01T08:00:22;13.45;;;0.88;;
31004;SDS011;17676;52.254;4.490;2022-10-01T08:02:55;9.43;;;0.63;;
31004;SDS011;17676;52.254;4.490;2022-10-01T08:05:25;13.23;;;0.80;;
31004;SDS011;17676;52.254;4.490;2022-10-01T08:07:59;11.65;;;0.55;;
31004;SDS011;17676;52.254;4.490;2022-10-01T08:10:32;10.85;;;1.08;;
31004;SDS011;17676;52.254;4.490;2022-10-01T08:13:01;9.48;;;0.52;;
31004;SDS011;17676;52.254;4.490;2022-10-01T08:15:34;14.02;;;0.82;;
31004;SDS011;17676;52.254;4.490;2022-10-01T08:18:01;15.15;;;1.20;;
31004;SDS011;17676;52.254;4.490;2022-10-01T08:20:28;9.32;;;0.63;;
31004;SDS011;17676;52.254;4.490;2022-10-01T08:22:59;8.30;;;0.70;;
31004;SDS011;17676;52.254;4.490;2022-10-01T08:25:27;19.58;;;1.60;;
31004;SDS011;17676;52.254;4.490;2022-10-01T08:27:54;12.68;;;1.08;;
31004;SDS011;17676;52.254;4.490;2022-10-01T08:30:20;15.23;;;1.00;;
31004;SDS011;17676;52.254;4.490;2022-10-01T08:32:46;8.73;;;0.88;;
31004;SDS011;17676;52.254;4.490;2022-10-01T08:35:12;8.57;;;0.50;;
31004;SDS011;17676;52.254;4.490;2022-10-01T08:37:41;10.93;;;0.70;;
31004;SDS011;17676;52.254;4.490;2022-10-01T08:40:07;9.05;;;0.68;;
31004;SDS011;17676;52.254;4.490;2022-10-01T08:42:53;13.30;;;1.00;;
31004;SDS011;17676;52.254;4.490;2022-10-01T08:48:13;12.60;;;1.20;;
31004;SDS011;17676;52.254;4.490;2022-10-01T08:50:48;12.95;;;1.00;;
31004;SDS011;17676;52.254;4.490;2022-10-01T08:53:41;17.17;;;0.90;;
31004;SDS011;17676;52.254;4.490;2022-10-01T08:56:36;9.75;;;0.85;;
31004;SDS011;17676;52.254;4.490;2022-10-01T08:59:19;11.23;;;0.90;;
31004;SDS011;17676;52.254;4.490;2022-10-01T09:04:57;11.52;;;1.20;;
31004;SDS011;17676;52.254;4.490;2022-10-01T09:18:37;8.55;;;0.55;;
31004;SDS011;17676;52.254;4.490;2022-10-01T09:21:35;10.70;;;0.85;;
31004;SDS011;17676;52.254;4.490;2022-10-01T09:24:12;9.40;;;0.63;;
31004;SDS011;17676;52.254;4.490;2022-10-01T09:26:46;9.88;;;0.60;;
31004;SDS011;17676;52.254;4.490;2022-10-01T09:29:21;8.77;;;1.15;;
31004;SDS011;17676;52.254;4.490;2022-10-01T09:31:59;14.98;;;0.80;;
31004;SDS011;17676;52.254;4.490;2022-10-01T09:40:03;9.80;;;0.70;;
31004;SDS011;17676;52.254;4.490;2022-10-01T09:42:41;11.70;;;0.85;;
31004;SDS011;17676;52.254;4.490;2022-10-01T09:45:14;13.57;;;1.15;;
31004;SDS011;17676;52.254;4.490;2022-10-01T09:47:42;7.65;;;0.52;;
31004;SDS011;17676;52.254;4.490;2022-10-01T09:50:12;9.88;;;0.80;;
31004;SDS011;17676;52.254;4.490;2022-10-01T09:52:41;16.15;;;1.38;;
31004;SDS011;17676;52.254;4.490;2022-10-01T09:55:49;11.13;;;1.02;;
31004;SDS011;17676;52.254;4.490;2022-10-01T10:01:02;12.07;;;1.00;;
31004;SDS011;17676;52.254;4.490;2022-10-01T10:03:37;8.02;;;0.80;;
31004;SDS011;17676;52.254;4.490;2022-10-01T10:06:03;9.90;;;0.88;;
31004;SDS011;17676;52.254;4.490;2022-10-01T10:11:04;10.25;;;0.88;;
31004;SDS011;17676;52.254;4.490;2022-10-01T10:13:38;10.15;;;1.25;;
31004;SDS011;17676;52.254;4.490;2022-10-01T10:16:27;13.98;;;1.40;;
31004;SDS011;17676;52.254;4.490;2022-10-01T10:19:05;8.27;;;0.80;;
31004;SDS011;17676;52.254;4.490;2022-10-01T10:21:48;12.93;;;0.88;;
31004;SDS011;17676;52.254;4.490;2022-10-01T10:24:39;7.65;;;0.80;;
31004;SDS011;17676;52.254;4.490;2022-10-01T10:27:20;11.88;;;1.00;;
31004;SDS011;17676;52.254;4.490;2022-10-01T10:30:16;10.05;;;1.08;;
31004;SDS011;17676;52.254;4.490;2022-10-01T10:32:44;7.20;;;1.23;;
31004;SDS011;17676;52.254;4.490;2022-10-01T10:35:13;6.25;;;0.38;;
31004;SDS011;17676;52.254;4.490;2022-10-01T10:37:47;11.88;;;0.85;;
31004;SDS011;17676;52.254;4.490;2022-10-01T10:40:23;9.88;;;0.73;;
31004;SDS011;17676;52.254;4.490;2022-10-01T10:42:52;10.23;;;0.95;;
31004;SDS011;17676;52.254;4.490;2022-10-01T10:45:22;9.43;;;0.60;;
31004;SDS011;17676;52.254;4.490;2022-10-01T10:47:56;14.38;;;1.35;;
31004;SDS011;17676;52.254;4.490;2022-10-01T10:50:28;11.70;;;0.88;;
31004;SDS011;17676;52.254;4.490;2022-10-01T10:52:59;5.50;;;1.10;;
31004;SDS011;17676;52.254;4.490;2022-10-01T10:55:35;11.52;;;1.00;;
31004;SDS011;17676;52.254;4.490;2022-10-01T10:58:10;10.05;;;1.10;;
31004;SDS011;17676;52.254;4.490;2022-10-01T11:00:48;8.85;;;0.75;;
31004;SDS011;17676;52.254;4.490;2022-10-01T11:03:16;15.27;;;1.15;;
31004;SDS011;17676;52.254;4.490;2022-10-01T11:05:48;13.25;;;1.25;;
31004;SDS011;17676;52.254;4.490;2022-10-01T11:08:19;12.40;;;0.80;;
31004;SDS011;17676;52.254;4.490;2022-10-01T11:14:14;10.63;;;1.02;;
31004;SDS011;17676;52.254;4.490;2022-10-01T11:28:08;11.45;;;0.95;;
31004;SDS011;17676;52.254;4.490;2022-10-01T11:33:29;9.80;;;0.95;;
31004;SDS011;17676;52.254;4.490;2022-10-01T11:36:27;9.05;;;0.75;;
31004;SDS011;17676;52.254;4.490;2022-10-01T11:49:26;14.27;;;1.08;;
31004;SDS011;17676;52.254;4.490;2022-10-01T11:52:05;14.70;;;1.17;;
31004;SDS011;17676;52.254;4.490;2022-10-01T12:01:01;12.18;;;1.15;;
31004;SDS011;17676;52.254;4.490;2022-10-01T12:06:21;12.38;;;1.33;;
31004;SDS011;17676;52.254;4.490;2022-10-01T12:08:59;12.82;;;1.38;;
31004;SDS011;17676;52.254;4.490;2022-10-01T12:12:34;20.35;;;1.80;;
31004;SDS011;17676;52.254;4.490;2022-10-01T12:14:55;8.52;;;0.80;;
31004;SDS011;17676;52.254;4.490;2022-10-01T12:17:32;16.67;;;0.80;;
31004;SDS011;17676;52.254;4.490;2022-10-01T12:22:57;15.40;;;1.52;;
31004;SDS011;17676;52.254;4.490;2022-10-01T12:25:28;15.18;;;1.58;;
31004;SDS011;17676;52.254;4.490;2022-10-01T12:28:05;9.20;;;0.80;;
31004;SDS011;17676;52.254;4.490;2022-10-01T12:34:22;11.40;;;1.15;;
31004;SDS011;17676;52.254;4.490;2022-10-01T12:39:49;12.10;;;0.98;;
31004;SDS011;17676;52.254;4.490;2022-10-01T12:45:16;16.52;;;0.80;;
31004;SDS011;17676;52.254;4.490;2022-10-01T12:48:01;11.07;;;1.15;;
31004;SDS011;17676;52.254;4.490;2022-10-01T12:53:37;11.52;;;0.80;;
31004;SDS011;17676;52.254;4.490;2022-10-01T12:58:53;16.75;;;1.33;;
31004;SDS011;17676;52.254;4.490;2022-10-01T13:10:29;15.65;;;1.50;;
31004;SDS011;17676;52.254;4.490;2022-10-01T13:13:03;14.32;;;1.25;;
31004;SDS011;17676;52.254;4.490;2022-10-01T13:15:39;13.70;;;0.80;;
31004;SDS011;17676;52.254;4.490;2022-10-01T13:26:19;9.93;;;0.80;;
31004;SDS011;17676;52.254;4.490;2022-10-01T13:29:05;11.88;;;1.02;;
31004;SDS011;17676;52.254;4.490;2022-10-01T13:37:13;14.45;;;1.30;;
31004;SDS011;17676;52.254;4.490;2022-10-01T13:39:59;19.15;;;1.63;;
31004;SDS011;17676;52.254;4.490;2022-10-01T13:42:30;11.40;;;1.13;;
31004;SDS011;17676;52.254;4.490;2022-10-01T13:45:06;10.18;;;0.85;;
31004;SDS011;17676;52.254;4.490;2022-10-01T13:47:44;10.45;;;1.05;;
31004;SDS011;17676;52.254;4.490;2022-10-01T13:50:51;11.73;;;1.10;;
31004;SDS011;17676;52.254;4.490;2022-10-01T13:53:14;12.93;;;0.80;;
31004;SDS011;17676;52.254;4.490;2022-10-01T13:55:44;17.63;;;1.55;;
31004;SDS011;17676;52.254;4.490;2022-10-01T13:58:22;14.70;;;0.90;;
31004;SDS011;17676;52.254;4.490;2022-10-01T14:00:57;15.40;;;1.25;;
31004;SDS011;17676;52.254;4.490;2022-10-01T14:06:20;7.35;;;0.60;;
31004;SDS011;17676;52.254;4.490;2022-10-01T14:08:56;7.13;;;0.57;;
31004;SDS011;17676;52.254;4.490;2022-10-01T14:11:46;6.45;;;0.40;;
31004;SDS011;17676;52.254;4.490;2022-10-01T14:14:35;10.32;;;0.70;;
31004;SDS011;17676;52.254;4.490;2022-10-01T14:17:27;5.55;;;0.45;;
31004;SDS011;17676;52.254;4.490;2022-10-01T14:20:05;12.30;;;0.73;;
31004;SDS011;17676;52.254;4.490;2022-10-01T14:30:38;11.25;;;0.60;;
31004;SDS011;17676;52.254;4.490;2022-10-01T14:36:24;10.82;;;0.65;;
31004;SDS011;17676;52.254;4.490;2022-10-01T14:41:51;14.27;;;1.13;;
31004;SDS011;17676;52.254;4.490;2022-10-01T14:46:51;9.35;;;0.50;;
31004;SDS011;17676;52.254;4.490;2022-10-01T14:49:19;8.98;;;0.80;;
31004;SDS011;17676;52.254;4.490;2022-10-01T14:51:53;6.82;;;0.40;;
31004;SDS011;17676;52.254;4.490;2022-10-01T14:54:22;14.07;;;0.95;;
31004;SDS011;17676;52.254;4.490;2022-10-01T14:56:48;8.93;;;0.75;;
31004;SDS011;17676;52.254;4.490;2022-10-01T14:59:19;9.95;;;0.52;;
31004;SDS011;17676;52.254;4.490;2022-10-01T15:02:00;16.35;;;0.77;;
31004;SDS011;17676;52.254;4.490;2022-10-01T15:04:27;11.65;;;0.52;;
31004;SDS011;17676;52.254;4.490;2022-10-01T15:06:53;11.48;;;1.13;;
31004;SDS011;17676;52.254;4.490;2022-10-01T15:09:30;10.88;;;0.75;;
31004;SDS011;17676;52.254;4.490;2022-10-01T15:11:57;16.60;;;1.52;;
31004;SDS011;17676;52.254;4.490;2022-10-01T15:14:23;11.60;;;0.63;;
31004;SDS011;17676;52.254;4.490;2022-10-01T15:16:49;10.75;;;0.90;;
31004;SDS011;17676;52.254;4.490;2022-10-01T15:19:19;12.40;;;0.88;;
31004;SDS011;17676;52.254;4.490;2022-10-01T15:21:53;11.77;;;1.02;;
31004;SDS011;17676;52.254;4.490;2022-10-01T15:24:40;8.85;;;0.60;;
31004;SDS011;17676;52.254;4.490;2022-10-01T15:27:16;14.32;;;0.70;;
31004;SDS011;17676;52.254;4.490;2022-10-01T15:29:43;11.60;;;1.52;;
31004;SDS011;17676;52.254;4.490;2022-10-01T15:35:32;9.60;;;0.70;;
31004;SDS011;17676;52.254;4.490;2022-10-01T15:38:10;9.90;;;0.65;;
31004;SDS011;17676;52.254;4.490;2022-10-01T15:40:37;11.10;;;0.60;;
31004;SDS011;17676;52.254;4.490;2022-10-01T15:45:32;9.85;;;0.50;;
31004;SDS011;17676;52.254;4.490;2022-10-01T15:48:29;10.45;;;0.75;;
31004;SDS011;17676;52.254;4.490;2022-10-01T15:51:04;10.57;;;1.30;;
31004;SDS011;17676;52.254;4.490;2022-10-01T15:53:37;14.02;;;0.95;;
31004;SDS011;17676;52.254;4.490;2022-10-01T15:56:09;11.35;;;0.50;;
31004;SDS011;17676;52.254;4.490;2022-10-01T15:58:42;12.32;;;1.00;;
31004;SDS011;17676;52.254;4.490;2022-10-01T16:01:27;18.83;;;1.27;;
31004;SDS011;17676;52.254;4.490;2022-10-01T16:06:43;8.38;;;0.77;;
31004;SDS011;17676;52.254;4.490;2022-10-01T16:09:25;9.52;;;0.80;;
31004;SDS011;17676;52.254;4.490;2022-10-01T16:14:56;13.27;;;0.80;;
31004;SDS011;17676;52.254;4.490;2022-10-01T16:17:26;11.20;;;0.65;;
31004;SDS011;17676;52.254;4.490;2022-10-01T16:19:57;11.93;;;0.73;;
31004;SDS011;17676;52.254;4.490;2022-10-01T16:25:45;15.88;;;1.38;;
31004;SDS011;17676;52.254;4.490;2022-10-01T16:28:26;11.05;;;0.90;;
31004;SDS011;17676;52.254;4.490;2022-10-01T16:31:02;8.73;;;0.70;;
31004;SDS011;17676;52.254;4.490;2022-10-01T16:33:28;16.95;;;1.00;;
31004;SDS011;17676;52.254;4.490;2022-10-01T16:36:07;11.45;;;0.60;;
31004;SDS011;17676;52.254;4.490;2022-10-01T16:38:48;11.38;;;1.10;;
31004;SDS011;17676;52.254;4.490;2022-10-01T16:41:16;12.05;;;0.90;;
31004;SDS011;17676;52.254;4.490;2022-10-01T16:43:46;11.57;;;1.10;;
31004;SDS011;17676;52.254;4.490;2022-10-01T16:46:12;13.05;;;0.90;;
31004;SDS011;17676;52.254;4.490;2022-10-01T16:48:38;13.20;;;1.33;;
31004;SDS011;17676;52.254;4.490;2022-10-01T16:51:03;18.75;;;1.08;;
31004;SDS011;17676;52.254;4.490;2022-10-01T16:53:29;13.88;;;1.52;;
31004;SDS011;17676;52.254;4.490;2022-10-01T16:55:54;13.25;;;1.10;;
31004;SDS011;17676;52.254;4.490;2022-10-01T16:58:21;16.05;;;1.02;;
31004;SDS011;17676;52.254;4.490;2022-10-01T17:00:48;15.57;;;1.38;;
31004;SDS011;17676;52.254;4.490;2022-10-01T17:03:16;12.18;;;0.85;;
31004;SDS011;17676;52.254;4.490;2022-10-01T17:05:43;15.73;;;1.40;;
31004;SDS011;17676;52.254;4.490;2022-10-01T17:08:11;19.25;;;1.20;;
31004;SDS011;17676;52.254;4.490;2022-10-01T17:10:42;13.55;;;0.90;;
31004;SDS011;17676;52.254;4.490;2022-10-01T17:13:12;10.75;;;0.90;;
31004;SDS011;17676;52.254;4.490;2022-10-01T17:15:39;13.82;;;1.33;;
31004;SDS011;17676;52.254;4.490;2022-10-01T17:18:05;8.73;;;0.80;;
31004;SDS011;17676;52.254;4.490;2022-10-01T17:20:36;11.15;;;1.80;;
31004;SDS011;17676;52.254;4.490;2022-10-01T17:23:04;8.25;;;0.55;;
31004;SDS011;17676;52.254;4.490;2022-10-01T17:25:31;8.80;;;0.70;;
31004;SDS011;17676;52.254;4.490;2022-10-01T17:28:00;9.20;;;0.50;;
31004;SDS011;17676;52.254;4.490;2022-10-01T17:30:28;8.57;;;0.40;;
31004;SDS011;17676;52.254;4.490;2022-10-01T17:32:55;10.73;;;0.80;;
31004;SDS011;17676;52.254;4.490;2022-10-01T17:35:22;10.43;;;0.65;;
31004;SDS011;17676;52.254;4.490;2022-10-01T17:37:48;12.90;;;0.55;;
31004;SDS011;17676;52.254;4.490;2022-10-01T17:40:14;12.30;;;0.60;;
31004;SDS011;17676;52.254;4.490;2022-10-01T17:42:40;11.07;;;0.88;;
31004;SDS011;17676;52.254;4.490;2022-10-01T17:45:07;13.40;;;0.77;;
31004;SDS011;17676;52.254;4.490;2022-10-01T17:47:34;9.52;;;0.52;;
31004;SDS011;17676;52.254;4.490;2022-10-01T17:50:00;15.65;;;0.77;;
31004;SDS011;17676;52.254;4.490;2022-10-01T17:52:27;9.43;;;0.68;;
31004;SDS011;17676;52.254;4.490;2022-10-01T17:54:53;6.78;;;0.52;;